Time;durP1;ratioP1;P1;durP2;ratioP2;P2;SDS_P1;SDS_P2;PMS_P1;PMS_P2;Temp;Humidity;BMP_temperature;BMP_pressure;BME280_temperature;BME280_humidity;BME280_pressure;Samples;Min_cycle;Max_cycle;Signal;HPM_P1;HPM_P2
2023/07/20 00:00:07;;;;;;;1.90;1.13;;;15.00;99.90;;;;;;4967709;28;20074;-62
2023/07/20 00:02:33;;;;;;;5.05;1.15;;;15.00;99.90;;;;;;4953601;28;20539;-63
2023/07/20 00:04:59;;;;;;;0.77;0.77;;;15.00;99.90;;;;;;4951497;28;20039;-63
2023/07/20 00:07:25;;;;;;;2.40;1.20;;;15.10;99.90;;;;;;4967533;28;20141;-63
2023/07/20 00:09:51;;;;;;;1.40;1.08;;;15.00;99.90;;;;;;4964378;28;20038;-62
2023/07/20 00:12:16;;;;;;;2.67;1.27;;;15.10;99.90;;;;;;4967961;28;20497;-63
2023/07/20 00:14:42;;;;;;;1.92;1.20;;;15.00;99.90;;;;;;4934369;29;20099;-62
2023/07/20 00:17:08;;;;;;;3.55;1.05;;;15.00;99.90;;;;;;4935112;29;20122;-63
2023/07/20 00:19:34;;;;;;;2.58;1.58;;;15.00;99.90;;;;;;4949861;28;20043;-63
2023/07/20 00:22:01;;;;;;;1.30;1.13;;;15.10;99.90;;;;;;4965948;28;20505;-63
2023/07/20 00:24:27;;;;;;;2.20;0.80;;;15.00;99.90;;;;;;4956557;28;20498;-63
2023/07/20 00:26:53;;;;;;;1.00;1.00;;;15.00;99.90;;;;;;4972589;28;20059;-62
2023/07/20 00:29:18;;;;;;;1.73;0.88;;;15.10;99.90;;;;;;4991028;28;20065;-63
2023/07/20 00:31:44;;;;;;;1.00;0.95;;;15.10;99.90;;;;;;4989350;28;20057;-63
2023/07/20 00:34:10;;;;;;;1.13;1.05;;;15.00;99.90;;;;;;4990766;28;20050;-62
2023/07/20 00:36:36;;;;;;;2.30;1.30;;;15.00;99.90;;;;;;4976299;28;20061;-63
2023/07/20 00:39:02;;;;;;;3.17;1.50;;;15.00;99.90;;;;;;4990644;28;20078;-63
2023/07/20 00:41:29;;;;;;;1.75;0.90;;;15.00;99.90;;;;;;4989225;28;20082;-63
2023/07/20 00:43:56;;;;;;;1.30;1.30;;;15.00;99.90;;;;;;4990163;28;20637;-62
2023/07/20 00:46:24;;;;;;;1.20;1.10;;;15.00;99.90;;;;;;4990751;28;20118;-63
2023/07/20 00:48:50;;;;;;;0.98;0.90;;;15.00;99.90;;;;;;4989672;28;20515;-62
2023/07/20 00:51:15;;;;;;;1.75;1.30;;;15.00;99.90;;;;;;4990538;28;20511;-63
2023/07/20 00:53:41;;;;;;;2.53;1.45;;;14.90;99.90;;;;;;4989521;28;20042;-62
2023/07/20 00:56:08;;;;;;;1.23;1.10;;;14.90;99.90;;;;;;4989932;28;20162;-63
2023/07/20 00:58:35;;;;;;;4.30;1.35;;;14.90;99.90;;;;;;4971878;28;20050;-63
2023/07/20 01:01:01;;;;;;;4.07;1.48;;;14.90;99.90;;;;;;4989764;28;20570;-63
2023/07/20 01:03:26;;;;;;;2.47;1.38;;;14.90;99.90;;;;;;4972446;28;20054;-63
2023/07/20 01:06:09;;;;;;;2.33;1.33;;;14.80;99.90;;;;;;4989371;28;20034;-63
2023/07/20 01:08:53;;;;;;;1.35;1.25;;;14.80;99.90;;;;;;4989444;28;20109;-63
2023/07/20 01:11:37;;;;;;;1.30;0.90;;;14.80;99.90;;;;;;4959619;28;20053;-63
2023/07/20 01:14:04;;;;;;;2.35;1.00;;;14.80;99.90;;;;;;4989862;28;20172;-63
2023/07/20 01:16:30;;;;;;;1.20;1.10;;;14.80;99.90;;;;;;4990015;28;20054;-63
2023/07/20 01:18:56;;;;;;;4.13;1.20;;;14.70;99.90;;;;;;4987322;28;20729;-63
2023/07/20 01:21:27;;;;;;;1.65;0.90;;;14.70;99.90;;;;;;4989140;28;20074;-63
2023/07/20 01:24:14;;;;;;;1.23;1.02;;;14.70;99.90;;;;;;4981876;28;20057;-63
2023/07/20 01:27:11;;;;;;;4.07;1.00;;;14.60;99.90;;;;;;4976361;28;20060;-63
2023/07/20 01:29:42;;;;;;;0.80;0.80;;;14.60;99.90;;;;;;4989222;28;20053;-63
2023/07/20 01:32:09;;;;;;;1.38;1.13;;;14.50;99.90;;;;;;4989072;28;20053;-63
2023/07/20 01:34:36;;;;;;;2.25;0.90;;;14.50;99.90;;;;;;4971320;28;20509;-63
2023/07/20 01:37:03;;;;;;;2.10;0.90;;;14.40;99.90;;;;;;4989456;28;20358;-63
2023/07/20 01:39:30;;;;;;;1.35;0.90;;;14.40;99.90;;;;;;4989303;28;20363;-63
2023/07/20 01:41:56;;;;;;;1.40;0.80;;;14.40;99.90;;;;;;4988657;28;20058;-62
2023/07/20 01:44:22;;;;;;;0.70;0.70;;;14.30;99.90;;;;;;4988599;28;20114;-63
2023/07/20 01:46:47;;;;;;;1.48;0.80;;;14.30;99.90;;;;;;4988676;28;20512;-63
2023/07/20 01:49:13;;;;;;;1.00;1.00;;;14.20;99.90;;;;;;4989318;28;20081;-63
2023/07/20 01:51:39;;;;;;;2.38;1.00;;;14.20;99.90;;;;;;4988592;28;20512;-63
2023/07/20 01:54:05;;;;;;;2.55;1.00;;;14.10;99.90;;;;;;4989214;28;20051;-63
2023/07/20 01:56:30;;;;;;;6.57;1.00;;;14.10;99.90;;;;;;4988435;28;20030;-62
2023/07/20 01:58:56;;;;;;;5.47;1.10;;;14.10;99.90;;;;;;4988856;28;20042;-63
2023/07/20 02:01:22;;;;;;;2.65;0.93;;;14.00;99.90;;;;;;4988761;28;20038;-63
2023/07/20 02:03:48;;;;;;;2.95;0.90;;;13.90;99.90;;;;;;4970821;28;20444;-63
2023/07/20 02:06:13;;;;;;;1.80;0.80;;;13.90;99.90;;;;;;4988669;28;20042;-63
2023/07/20 02:08:39;;;;;;;6.55;0.90;;;13.90;99.90;;;;;;4970943;28;20050;-63
2023/07/20 02:11:05;;;;;;;3.88;1.10;;;13.90;99.90;;;;;;4957496;28;20038;-63
2023/07/20 02:13:30;;;;;;;2.22;0.95;;;13.80;99.90;;;;;;4971600;28;20057;-63
2023/07/20 02:15:56;;;;;;;1.58;1.00;;;13.80;99.90;;;;;;4987925;28;20162;-63
2023/07/20 02:18:22;;;;;;;2.97;0.70;;;13.80;99.90;;;;;;4970883;28;20181;-63
2023/07/20 02:20:47;;;;;;;6.38;0.82;;;13.70;99.90;;;;;;4988026;28;20057;-62
2023/07/20 02:23:13;;;;;;;3.85;0.65;;;13.70;99.90;;;;;;4988580;28;20038;-62
2023/07/20 02:25:39;;;;;;;2.63;0.80;;;13.60;99.90;;;;;;4988491;28;20058;-63
2023/07/20 02:28:06;;;;;;;3.65;0.90;;;13.60;99.90;;;;;;4987226;28;20066;-63
2023/07/20 02:30:32;;;;;;;4.53;1.10;;;13.60;99.90;;;;;;4971076;28;20054;-63
2023/07/20 02:32:58;;;;;;;4.70;0.77;;;13.60;99.90;;;;;;4987875;28;20081;-63
2023/07/20 02:35:24;;;;;;;1.38;0.90;;;13.50;99.90;;;;;;4988108;28;20046;-63
2023/07/20 02:37:49;;;;;;;1.27;0.70;;;13.50;99.90;;;;;;4987559;28;20042;-63
2023/07/20 02:40:15;;;;;;;6.32;0.82;;;13.50;99.90;;;;;;4970476;28;20455;-62
2023/07/20 02:42:41;;;;;;;3.75;0.80;;;13.40;99.90;;;;;;4988356;28;20058;-62
2023/07/20 02:45:07;;;;;;;1.88;0.77;;;13.40;99.90;;;;;;4969587;28;20460;-63
2023/07/20 02:47:33;;;;;;;2.75;1.00;;;13.40;99.90;;;;;;4988378;28;20383;-63
2023/07/20 02:49:59;;;;;;;5.03;1.10;;;13.30;99.90;;;;;;4953738;28;20041;-63
2023/07/20 02:52:25;;;;;;;4.18;0.90;;;13.30;99.90;;;;;;4987941;28;20122;-62
2023/07/20 02:54:51;;;;;;;3.28;0.88;;;13.20;99.90;;;;;;4987543;28;20455;-63
2023/07/20 02:57:17;;;;;;;4.05;0.90;;;13.20;99.90;;;;;;4988061;28;20069;-63
2023/07/20 02:59:43;;;;;;;7.55;1.00;;;13.20;99.90;;;;;;4987864;28;20086;-62
2023/07/20 03:02:11;;;;;;;1.70;0.63;;;13.10;99.90;;;;;;4986860;28;20056;-63
2023/07/20 03:04:37;;;;;;;2.55;1.60;;;13.10;99.90;;;;;;4970198;28;20503;-63
2023/07/20 03:07:05;;;;;;;5.05;1.05;;;13.10;99.90;;;;;;4987298;28;20053;-63
2023/07/20 03:09:30;;;;;;;1.05;0.70;;;13.10;99.90;;;;;;4986038;28;20500;-62
2023/07/20 03:11:56;;;;;;;4.28;0.75;;;13.10;99.90;;;;;;4987068;28;20038;-63
2023/07/20 03:14:23;;;;;;;5.35;0.80;;;13.10;99.90;;;;;;4986503;28;20077;-63
2023/07/20 03:16:49;;;;;;;3.25;0.80;;;13.10;99.90;;;;;;4987318;28;20397;-63
2023/07/20 03:19:15;;;;;;;6.53;1.15;;;13.00;99.90;;;;;;4987635;28;20050;-62
2023/07/20 03:21:41;;;;;;;3.63;0.95;;;13.00;99.90;;;;;;4987367;28;20133;-62
2023/07/20 03:24:09;;;;;;;3.15;0.90;;;13.00;99.90;;;;;;4986522;28;20054;-62
2023/07/20 03:26:36;;;;;;;7.40;0.87;;;13.00;99.90;;;;;;4987514;28;20524;-62
2023/07/20 03:29:03;;;;;;;2.88;0.95;;;12.90;99.90;;;;;;4969442;28;20046;-62
2023/07/20 03:31:29;;;;;;;3.15;0.80;;;12.90;99.90;;;;;;4987175;28;20038;-62
2023/07/20 03:33:55;;;;;;;3.45;1.00;;;12.90;99.90;;;;;;4986486;28;20061;-63
2023/07/20 03:36:22;;;;;;;3.03;1.00;;;12.90;99.90;;;;;;4987506;28;20061;-62
2023/07/20 03:38:47;;;;;;;9.82;1.38;;;12.80;99.90;;;;;;4969896;28;20050;-62
2023/07/20 03:41:15;;;;;;;2.88;1.00;;;12.80;99.90;;;;;;4986591;28;20398;-62
2023/07/20 03:43:41;;;;;;;5.38;0.80;;;12.80;99.90;;;;;;4987845;28;20077;-62
2023/07/20 03:46:07;;;;;;;8.07;0.90;;;12.80;99.90;;;;;;4987118;28;20046;-62
2023/07/20 03:48:33;;;;;;;5.13;1.02;;;12.80;99.90;;;;;;4987714;28;20485;-62
2023/07/20 03:51:02;;;;;;;5.90;1.20;;;12.80;99.90;;;;;;4986732;28;20493;-62
2023/07/20 03:53:28;;;;;;;6.68;1.33;;;12.80;99.90;;;;;;4953689;28;20125;-62
2023/07/20 03:55:54;;;;;;;2.40;0.95;;;12.80;99.90;;;;;;4986605;28;20537;-62
2023/07/20 03:58:21;;;;;;;11.63;1.08;;;12.80;99.90;;;;;;4971190;28;20389;-62
2023/07/20 04:00:48;;;;;;;4.85;1.05;;;12.90;99.90;;;;;;4973661;28;20113;-62
2023/07/20 04:03:14;;;;;;;6.78;1.50;;;12.90;99.90;;;;;;4989919;28;20477;-63
2023/07/20 04:05:40;;;;;;;5.40;0.93;;;13.00;99.90;;;;;;4973646;28;20084;-63
2023/07/20 04:08:06;;;;;;;13.75;1.38;;;12.90;99.90;;;;;;4990782;28;20169;-62
2023/07/20 04:10:32;;;;;;;6.55;1.30;;;12.90;99.90;;;;;;4977302;28;20059;-63
2023/07/20 04:12:57;;;;;;;8.48;1.60;;;13.00;99.90;;;;;;4990172;28;20058;-63
2023/07/20 04:15:23;;;;;;;9.38;1.10;;;13.10;99.90;;;;;;4990636;28;20046;-62
2023/07/20 04:17:49;;;;;;;10.55;1.35;;;13.10;99.90;;;;;;4990933;28;20042;-63
2023/07/20 04:20:15;;;;;;;7.18;1.50;;;13.10;99.90;;;;;;4990544;28;20068;-63
2023/07/20 04:22:40;;;;;;;9.75;1.50;;;13.20;99.90;;;;;;4990374;28;20050;-62
2023/07/20 04:25:07;;;;;;;6.40;1.13;;;13.20;99.90;;;;;;4990279;28;20043;-62
2023/07/20 04:27:33;;;;;;;2.70;1.08;;;13.30;99.90;;;;;;4969792;28;20059;-62
2023/07/20 04:29:59;;;;;;;3.20;1.00;;;13.30;99.90;;;;;;4970866;28;20413;-63
2023/07/20 04:32:26;;;;;;;8.63;0.75;;;13.30;99.90;;;;;;4969358;28;20519;-62
2023/07/20 04:34:51;;;;;;;4.63;0.88;;;13.30;99.90;;;;;;4968402;28;20055;-63
2023/07/20 04:37:17;;;;;;;3.08;0.70;;;13.30;99.90;;;;;;4970767;28;20544;-62
2023/07/20 04:39:43;;;;;;;3.63;0.82;;;13.40;99.90;;;;;;4970697;28;20043;-62
2023/07/20 04:42:08;;;;;;;1.65;0.75;;;13.40;99.90;;;;;;4970440;28;20043;-62
2023/07/20 04:44:34;;;;;;;6.95;1.05;;;13.40;99.90;;;;;;4971120;28;20038;-63
2023/07/20 04:47:00;;;;;;;1.48;0.90;;;13.40;99.90;;;;;;4971106;28;20056;-63
2023/07/20 04:49:26;;;;;;;8.40;0.93;;;13.50;99.90;;;;;;4970778;28;20047;-63
2023/07/20 04:51:52;;;;;;;0.65;0.63;;;13.50;99.90;;;;;;4970562;28;20071;-63
2023/07/20 04:54:18;;;;;;;3.28;0.63;;;13.50;99.90;;;;;;4970572;28;20413;-63
2023/07/20 04:56:44;;;;;;;3.60;0.88;;;13.40;99.90;;;;;;4971043;28;20058;-63
2023/07/20 04:59:10;;;;;;;1.15;0.70;;;13.40;99.90;;;;;;4968567;28;20050;-63
2023/07/20 05:01:36;;;;;;;2.50;0.75;;;13.40;99.90;;;;;;4970423;28;20035;-63
2023/07/20 05:04:03;;;;;;;2.00;0.80;;;13.40;99.90;;;;;;4970509;28;20083;-63
2023/07/20 05:06:29;;;;;;;1.83;0.80;;;13.40;99.90;;;;;;4969974;28;20042;-64
2023/07/20 05:08:54;;;;;;;1.90;0.80;;;13.40;99.90;;;;;;4968822;28;20072;-63
2023/07/20 05:11:20;;;;;;;2.10;1.00;;;13.40;99.90;;;;;;4955916;28;20043;-64
2023/07/20 05:13:46;;;;;;;1.40;0.88;;;13.40;99.90;;;;;;4970652;28;20047;-63
2023/07/20 05:16:12;;;;;;;4.72;0.98;;;13.40;99.90;;;;;;4968286;28;20118;-63
2023/07/20 05:18:37;;;;;;;3.78;0.75;;;13.40;99.90;;;;;;4969399;28;20042;-63
2023/07/20 05:21:03;;;;;;;8.18;0.70;;;13.40;99.90;;;;;;4968755;28;20050;-63
2023/07/20 05:23:29;;;;;;;3.33;0.75;;;13.40;99.90;;;;;;4961459;28;20048;-64
2023/07/20 05:25:59;;;;;;;4.68;0.70;;;13.50;99.90;;;;;;4953058;28;20047;-64
2023/07/20 05:28:26;;;;;;;3.85;0.63;;;13.50;99.90;;;;;;4973059;28;20047;-64
2023/07/20 05:30:52;;;;;;;10.63;0.80;;;13.50;99.90;;;;;;4962335;28;20125;-64
2023/07/20 05:33:21;;;;;;;5.20;1.05;;;13.60;99.90;;;;;;4960503;28;20437;-64
2023/07/20 05:35:48;;;;;;;4.97;1.00;;;13.70;99.90;;;;;;4963898;28;20433;-63
2023/07/20 05:38:13;;;;;;;6.68;0.88;;;13.70;99.90;;;;;;4980896;28;20042;-64
2023/07/20 05:40:44;;;;;;;1.70;1.10;;;13.80;99.90;;;;;;4989481;28;20100;-64
2023/07/20 05:43:10;;;;;;;8.43;1.30;;;14.00;99.90;;;;;;4971644;28;20125;-63
2023/07/20 05:45:36;;;;;;;2.42;0.82;;;14.00;99.90;;;;;;4988991;28;20046;-63
2023/07/20 05:48:01;;;;;;;5.93;1.48;;;14.10;99.90;;;;;;4953372;28;20065;-63
2023/07/20 05:50:27;;;;;;;9.75;1.50;;;14.10;99.90;;;;;;4971074;28;20389;-64
2023/07/20 05:52:54;;;;;;;5.72;1.70;;;14.20;99.90;;;;;;4965313;28;20039;-64
2023/07/20 05:55:20;;;;;;;3.08;1.10;;;14.30;99.90;;;;;;4988614;28;20049;-64
2023/07/20 05:57:47;;;;;;;10.43;1.35;;;14.30;99.90;;;;;;4989023;28;20054;-63
2023/07/20 06:00:14;;;;;;;4.38;1.50;;;14.40;99.90;;;;;;4970974;28;20050;-64
2023/07/20 06:02:40;;;;;;;8.00;2.78;;;14.50;99.90;;;;;;4988578;28;20564;-64
2023/07/20 06:05:12;;;;;;;9.05;3.58;;;14.60;99.90;;;;;;4988501;28;20125;-63
2023/07/20 06:07:37;;;;;;;7.53;2.85;;;14.70;99.90;;;;;;4984181;28;20488;-63
2023/07/20 06:10:06;;;;;;;4.78;2.83;;;14.70;99.90;;;;;;4978322;28;20088;-63
2023/07/20 06:12:33;;;;;;;6.22;2.20;;;14.70;99.90;;;;;;4975711;28;20050;-64
2023/07/20 06:15:03;;;;;;;5.47;2.10;;;14.90;99.90;;;;;;4989114;28;20042;-63
2023/07/20 06:17:29;;;;;;;4.20;1.77;;;14.90;99.90;;;;;;4987536;28;20050;-63
2023/07/20 06:19:55;;;;;;;5.28;2.22;;;15.00;99.90;;;;;;4988032;28;20046;-63
2023/07/20 06:22:20;;;;;;;7.53;2.38;;;15.10;99.90;;;;;;4987638;28;20499;-63
2023/07/20 06:24:46;;;;;;;2.38;2.00;;;15.20;99.90;;;;;;4988311;28;20409;-63
2023/07/20 06:27:12;;;;;;;6.80;2.10;;;15.20;99.90;;;;;;4988387;28;20337;-63
2023/07/20 06:29:38;;;;;;;2.78;2.20;;;15.30;99.90;;;;;;4987703;28;20085;-63
2023/07/20 06:32:05;;;;;;;5.40;2.60;;;15.30;99.90;;;;;;4970710;28;20448;-63
2023/07/20 06:34:30;;;;;;;4.43;2.00;;;15.20;99.90;;;;;;4987380;28;20493;-62
2023/07/20 06:36:56;;;;;;;4.25;1.63;;;15.20;99.90;;;;;;4970842;28;20078;-63
2023/07/20 06:39:22;;;;;;;4.95;1.65;;;15.10;99.90;;;;;;4987613;28;20057;-62
2023/07/20 06:41:48;;;;;;;8.18;1.70;;;15.10;99.90;;;;;;4987871;28;20050;-62
2023/07/20 06:44:13;;;;;;;7.82;1.42;;;15.00;99.90;;;;;;4987954;28;20511;-63
2023/07/20 06:46:39;;;;;;;2.90;1.48;;;15.00;99.90;;;;;;4969609;28;20517;-64
2023/07/20 06:49:08;;;;;;;5.80;1.50;;;15.10;99.90;;;;;;4953847;28;20050;-64
2023/07/20 06:51:34;;;;;;;2.40;1.20;;;15.00;99.90;;;;;;4983115;28;20536;-63
2023/07/20 06:54:00;;;;;;;3.95;1.52;;;15.00;99.90;;;;;;4988204;28;20168;-63
2023/07/20 06:56:26;;;;;;;4.97;1.45;;;15.10;99.90;;;;;;4987301;28;20108;-63
2023/07/20 06:58:52;;;;;;;3.22;1.63;;;15.20;99.90;;;;;;4988158;28;20042;-64
2023/07/20 07:01:20;;;;;;;4.43;1.65;;;15.40;99.90;;;;;;4987572;28;20039;-63
2023/07/20 07:03:46;;;;;;;2.40;1.70;;;15.60;99.90;;;;;;4963510;28;20042;-63
2023/07/20 07:06:12;;;;;;;5.40;1.60;;;15.70;99.90;;;;;;4987179;28;20069;-64
2023/07/20 07:08:37;;;;;;;3.95;2.10;;;15.80;99.90;;;;;;4986893;28;20054;-63
2023/07/20 07:11:03;;;;;;;9.85;1.70;;;16.00;99.90;;;;;;4956149;28;20045;-63
2023/07/20 07:13:30;;;;;;;4.70;1.50;;;16.20;99.90;;;;;;4968735;28;20157;-64
2023/07/20 07:15:56;;;;;;;2.65;1.73;;;16.40;99.90;;;;;;4987454;28;20054;-63
2023/07/20 07:18:24;;;;;;;5.55;1.35;;;16.70;99.90;;;;;;4969728;28;20481;-63
2023/07/20 07:20:52;;;;;;;2.58;1.60;;;16.80;98.90;;;;;;4987105;28;20057;-63
2023/07/20 07:23:18;;;;;;;7.30;1.85;;;16.90;96.90;;;;;;4987130;28;20401;-63
2023/07/20 07:25:44;;;;;;;5.18;1.58;;;16.90;98.10;;;;;;4984500;28;20054;-63
2023/07/20 07:28:09;;;;;;;5.80;1.80;;;16.80;99.90;;;;;;4973982;28;20046;-63
2023/07/20 07:30:35;;;;;;;6.97;2.13;;;16.70;99.90;;;;;;4959997;28;20057;-63
2023/07/20 07:33:01;;;;;;;8.27;2.88;;;16.50;99.90;;;;;;4974865;28;20114;-64
2023/07/20 07:35:26;;;;;;;7.82;2.15;;;16.40;99.90;;;;;;4950780;28;20461;-63
2023/07/20 07:37:52;;;;;;;14.30;2.33;;;16.40;99.90;;;;;;4982269;28;20050;-64
2023/07/20 07:40:18;;;;;;;5.28;2.47;;;16.40;99.90;;;;;;4934758;28;20045;-64
2023/07/20 07:42:44;;;;;;;4.15;1.92;;;16.50;99.90;;;;;;4979997;28;20051;-64
2023/07/20 07:45:10;;;;;;;4.57;2.00;;;16.60;99.90;;;;;;4986465;28;20129;-64
2023/07/20 07:47:36;;;;;;;3.35;0.90;;;16.80;99.90;;;;;;4969310;28;20126;-64
2023/07/20 07:50:02;;;;;;;5.90;1.30;;;16.90;96.90;;;;;;4969449;28;20515;-64
2023/07/20 07:52:28;;;;;;;3.55;1.13;;;17.20;95.20;;;;;;4986472;28;20042;-64
2023/07/20 07:54:54;;;;;;;2.17;0.82;;;17.40;96.10;;;;;;4987251;28;20065;-64
2023/07/20 07:57:20;;;;;;;1.00;0.75;;;17.40;80.90;;;;;;4984972;28;20057;-64
2023/07/20 07:59:45;;;;;;;4.93;1.48;;;17.60;87.30;;;;;;4986796;28;20092;-64
2023/07/20 08:02:11;;;;;;;2.65;0.80;;;17.90;71.00;;;;;;4986143;28;20509;-64
2023/07/20 08:04:37;;;;;;;1.90;0.98;;;18.30;73.80;;;;;;4986430;28;20117;-64
2023/07/20 08:07:04;;;;;;;5.63;0.90;;;18.70;73.70;;;;;;4986730;28;20432;-64
2023/07/20 08:09:30;;;;;;;3.28;0.70;;;18.90;63.70;;;;;;4960480;28;20461;-64
2023/07/20 08:11:55;;;;;;;1.55;0.50;;;19.00;57.00;;;;;;4957271;28;20129;-64
2023/07/20 08:14:21;;;;;;;2.90;0.70;;;19.20;38.30;;;;;;4959759;28;20092;-65
2023/07/20 08:16:47;;;;;;;1.42;0.88;;;19.20;22.30;;;;;;4966535;28;20077;-64
2023/07/20 08:19:13;;;;;;;2.63;0.82;;;19.30;18.90;;;;;;4973706;28;20445;-64
2023/07/20 08:21:38;;;;;;;4.78;0.85;;;19.40;17.70;;;;;;4984473;28;20073;-64
2023/07/20 08:24:04;;;;;;;5.05;0.80;;;19.50;8.40;;;;;;4958016;28;20069;-64
2023/07/20 08:26:30;;;;;;;3.63;0.93;;;19.50;12.00;;;;;;4950146;28;20134;-64
2023/07/20 08:28:56;;;;;;;1.75;0.80;;;19.70;27.70;;;;;;4954863;28;20055;-64
2023/07/20 08:31:22;;;;;;;2.88;0.60;;;19.70;1.00;;;;;;4952082;28;20390;-64
2023/07/20 08:33:48;;;;;;;2.22;0.73;;;19.70;1.00;;;;;;4955116;28;20058;-64
2023/07/20 08:36:14;;;;;;;1.10;0.60;;;19.70;1.00;;;;;;4967150;28;20055;-65
2023/07/20 08:38:39;;;;;;;3.53;0.52;;;19.60;1.00;;;;;;4966845;28;20085;-64
2023/07/20 08:41:05;;;;;;;1.88;0.55;;;19.70;1.00;;;;;;4967420;28;20042;-64
2023/07/20 08:43:33;;;;;;;1.77;0.43;;;19.80;1.00;;;;;;4965559;28;20490;-64
2023/07/20 08:46:03;;;;;;;1.88;0.55;;;19.70;1.00;;;;;;4959307;28;20047;-64
2023/07/20 08:48:30;;;;;;;2.90;0.60;;;19.50;1.00;;;;;;4953894;28;20043;-64
2023/07/20 08:51:00;;;;;;;2.10;0.70;;;19.50;1.00;;;;;;4959746;28;20070;-64
2023/07/20 08:53:27;;;;;;;1.98;0.68;;;19.60;1.00;;;;;;4967193;28;20051;-63
2023/07/20 08:55:52;;;;;;;2.50;0.57;;;19.70;1.00;;;;;;4970395;28;20406;-64
2023/07/20 08:58:18;;;;;;;2.17;0.70;;;19.70;1.00;;;;;;4952687;28;20120;-64
2023/07/20 09:00:45;;;;;;;2.05;0.63;;;19.80;1.00;;;;;;4969365;28;20051;-64
2023/07/20 09:03:11;;;;;;;7.82;0.80;;;20.00;1.00;;;;;;4969551;28;20113;-64
2023/07/20 09:05:39;;;;;;;1.45;0.57;;;20.00;1.00;;;;;;4969980;28;20114;-64
2023/07/20 09:08:05;;;;;;;2.97;0.60;;;20.20;1.00;;;;;;4970987;28;20145;-64
2023/07/20 09:10:31;;;;;;;1.40;0.47;;;20.20;1.00;;;;;;4965897;28;20122;-64
2023/07/20 09:12:57;;;;;;;1.67;0.60;;;20.30;1.00;;;;;;4968785;28;20047;-65
2023/07/20 09:15:23;;;;;;;1.95;0.70;;;20.20;1.00;;;;;;4969217;28;20120;-64
2023/07/20 09:17:50;;;;;;;5.05;0.50;;;20.00;1.00;;;;;;4969298;28;20391;-65
2023/07/20 09:20:18;;;;;;;0.85;0.43;;;19.80;1.00;;;;;;4968977;28;20445;-64
2023/07/20 09:22:44;;;;;;;1.95;0.38;;;19.60;1.00;;;;;;4963497;28;20043;-64
2023/07/20 09:25:14;;;;;;;0.63;0.40;;;19.70;1.00;;;;;;4965836;28;20046;-64
2023/07/20 09:27:42;;;;;;;2.17;0.75;;;19.80;1.00;;;;;;4963439;28;20058;-64
2023/07/20 09:30:10;;;;;;;2.30;0.60;;;20.00;1.00;;;;;;4970321;28;20105;-64
2023/07/20 09:32:50;;;;;;;2.28;0.50;;;20.20;1.00;;;;;;4960226;28;20102;-64
2023/07/20 09:35:19;;;;;;;1.85;0.50;;;20.30;1.00;;;;;;4966072;28;20065;-64
2023/07/20 09:37:53;;;;;;;1.55;0.60;;;20.30;1.00;;;;;;4969196;28;20185;-64
2023/07/20 09:40:20;;;;;;;0.65;0.40;;;20.40;1.00;;;;;;4969878;28;20049;-64
2023/07/20 09:42:46;;;;;;;0.95;0.50;;;20.30;1.00;;;;;;4968717;28;20055;-64
2023/07/20 09:45:12;;;;;;;1.17;0.45;;;20.40;1.00;;;;;;4969123;28;20362;-63
2023/07/20 09:47:39;;;;;;;2.90;0.55;;;20.40;1.00;;;;;;4968391;28;20134;-63
2023/07/20 09:50:10;;;;;;;2.90;0.50;;;20.00;1.00;;;;;;4969128;28;20040;-64
2023/07/20 09:52:46;;;;;;;0.98;0.30;;;20.10;1.00;;;;;;4949729;28;20047;-64
2023/07/20 09:55:13;;;;;;;2.55;0.60;;;20.00;1.00;;;;;;4963750;28;20070;-64
2023/07/20 09:57:39;;;;;;;0.52;0.35;;;19.80;1.00;;;;;;4958675;28;20042;-64
2023/07/20 10:00:11;;;;;;;2.08;0.50;;;19.40;1.00;;;;;;4968655;28;20057;-64
2023/07/20 10:02:43;;;;;;;1.38;0.60;;;19.40;1.00;;;;;;4968919;28;20046;-64
2023/07/20 10:05:12;;;;;;;1.13;0.50;;;19.50;1.00;;;;;;4968582;28;20034;-64
2023/07/20 10:07:43;;;;;;;6.05;0.70;;;19.60;1.00;;;;;;4968720;28;20054;-64
2023/07/20 10:10:10;;;;;;;0.98;0.50;;;19.80;1.00;;;;;;4955762;28;20054;-63
2023/07/20 10:12:39;;;;;;;1.70;0.35;;;19.90;1.00;;;;;;4960528;28;20053;-63
2023/07/20 10:15:23;;;;;;;0.80;0.40;;;19.80;1.00;;;;;;4948560;28;20473;-64
2023/07/20 10:18:14;;;;;;;0.30;0.30;;;19.70;1.00;;;;;;4952155;28;20542;-63
2023/07/20 10:20:43;;;;;;;0.68;0.43;;;19.50;1.00;;;;;;4954410;28;20090;-63
2023/07/20 10:23:09;;;;;;;3.33;0.50;;;19.40;1.00;;;;;;4957507;28;20055;-63
2023/07/20 10:25:38;;;;;;;0.70;0.30;;;19.50;1.00;;;;;;4957519;28;20457;-64
2023/07/20 10:28:07;;;;;;;3.25;0.60;;;19.40;1.00;;;;;;4969618;28;20095;-63
2023/07/20 10:30:36;;;;;;;0.70;0.50;;;19.30;1.00;;;;;;4985092;28;20054;-63
2023/07/20 10:33:02;;;;;;;;;;;19.20;1.00;;;;;;4950644;28;20054;-63
2023/07/20 10:35:28;;;;;;;0.47;0.35;;;19.40;1.00;;;;;;4978420;28;19925;-63
2023/07/20 10:38:00;;;;;;;1.13;0.38;;;19.60;1.00;;;;;;4975767;28;20557;-63
2023/07/20 10:40:32;;;;;;;1.25;0.40;;;19.60;1.00;;;;;;4983506;28;20121;-63
2023/07/20 10:43:09;;;;;;;1.20;0.30;;;19.40;1.00;;;;;;4986143;28;20064;-64
2023/07/20 10:45:53;;;;;;;1.20;0.60;;;19.40;1.00;;;;;;4966743;28;20446;-63
2023/07/20 10:48:25;;;;;;;5.68;0.57;;;19.50;1.00;;;;;;4986584;28;20052;-63
2023/07/20 10:51:16;;;;;;;2.97;0.63;;;19.60;1.00;;;;;;4966706;28;20054;-63
2023/07/20 10:53:42;;;;;;;2.50;0.65;;;19.70;1.00;;;;;;4979095;28;20051;-64
2023/07/20 10:56:13;;;;;;;0.98;0.50;;;19.90;1.00;;;;;;4984816;28;20050;-63
2023/07/20 10:58:40;;;;;;;2.30;0.60;;;20.00;1.00;;;;;;4974440;28;20489;-63
2023/07/20 11:01:06;;;;;;;1.15;0.60;;;19.90;1.00;;;;;;4969261;28;20054;-63
2023/07/20 11:03:40;;;;;;;1.02;0.40;;;19.80;1.00;;;;;;4969589;28;20256;-64
2023/07/20 11:06:24;;;;;;;1.83;0.50;;;19.90;1.00;;;;;;4986907;28;20424;-63
2023/07/20 11:08:55;;;;;;;1.00;0.60;;;19.90;1.00;;;;;;4985714;28;20517;-63
2023/07/20 11:11:29;;;;;;;2.97;0.43;;;20.00;1.00;;;;;;4986942;28;20046;-63
2023/07/20 11:14:02;;;;;;;3.55;0.85;;;20.00;1.00;;;;;;4970271;28;20054;-63
2023/07/20 11:16:34;;;;;;;1.63;0.40;;;19.90;1.00;;;;;;4976532;28;20042;-63
2023/07/20 11:19:00;;;;;;;2.58;0.40;;;19.80;1.00;;;;;;4968804;28;20432;-63
2023/07/20 11:21:26;;;;;;;1.52;0.68;;;19.80;1.00;;;;;;4979009;28;20097;-63
2023/07/20 11:23:52;;;;;;;1.05;0.30;;;19.90;1.00;;;;;;4982238;28;20073;-63
2023/07/20 11:26:19;;;;;;;0.40;0.32;;;20.00;1.00;;;;;;4982663;28;20140;-63
2023/07/20 11:28:52;;;;;;;0.90;0.38;;;20.10;1.00;;;;;;4986679;28;20558;-62
2023/07/20 11:31:18;;;;;;;0.85;0.40;;;20.00;1.00;;;;;;4964576;28;20414;-62
2023/07/20 11:33:45;;;;;;;0.77;0.50;;;19.80;1.00;;;;;;4986451;28;20077;-63
2023/07/20 11:36:11;;;;;;;0.82;0.55;;;19.80;1.00;;;;;;4969155;28;20085;-63
2023/07/20 11:38:41;;;;;;;1.13;0.40;;;19.90;1.00;;;;;;4987070;28;20042;-62
2023/07/20 11:41:07;;;;;;;2.28;0.85;;;19.90;1.00;;;;;;4984576;28;20046;-63
2023/07/20 11:43:33;;;;;;;0.63;0.50;;;20.00;1.00;;;;;;4968918;28;20038;-63
2023/07/20 11:46:01;;;;;;;1.25;0.80;;;20.00;1.00;;;;;;4987020;28;20038;-63
2023/07/20 11:48:27;;;;;;;1.55;0.47;;;20.10;1.00;;;;;;4986656;28;20550;-63
2023/07/20 11:50:52;;;;;;;2.15;0.30;;;20.10;1.00;;;;;;4986534;28;20126;-63
2023/07/20 11:53:19;;;;;;;3.20;0.50;;;20.10;1.00;;;;;;4986127;28;20042;-63
2023/07/20 11:55:46;;;;;;;3.08;0.50;;;20.00;1.00;;;;;;4969321;28;20055;-62
2023/07/20 11:58:11;;;;;;;2.88;0.60;;;20.00;1.00;;;;;;4983803;28;20073;-63
2023/07/20 12:00:39;;;;;;;0.73;0.60;;;20.00;1.00;;;;;;4969439;28;20058;-62
2023/07/20 12:03:10;;;;;;;5.80;0.80;;;20.00;1.00;;;;;;4985720;28;20057;-63
2023/07/20 12:05:37;;;;;;;0.75;0.40;;;19.80;1.00;;;;;;4986062;28;20038;-63
2023/07/20 12:08:04;;;;;;;2.47;0.57;;;19.60;1.00;;;;;;4986303;28;20628;-64
2023/07/20 12:10:30;;;;;;;2.88;0.82;;;19.60;1.00;;;;;;4979668;28;20050;-64
2023/07/20 12:13:04;;;;;;;2.22;0.63;;;19.80;1.00;;;;;;4969713;28;20460;-64
2023/07/20 12:15:31;;;;;;;2.42;0.80;;;19.90;1.00;;;;;;4955639;28;20554;-64
2023/07/20 12:18:00;;;;;;;1.13;0.55;;;19.80;1.00;;;;;;4985083;28;20460;-64
2023/07/20 12:20:37;;;;;;;1.50;0.57;;;19.80;1.00;;;;;;4988946;28;20047;-64
2023/07/20 12:23:11;;;;;;;8.52;1.30;;;19.80;1.00;;;;;;4956488;28;20042;-64
2023/07/20 12:25:47;;;;;;;0.47;0.35;;;19.90;1.00;;;;;;4989685;28;20117;-64
2023/07/20 12:28:16;;;;;;;3.30;0.50;;;19.90;1.00;;;;;;4982267;28;20137;-64
2023/07/20 12:30:44;;;;;;;0.98;0.43;;;19.80;1.00;;;;;;4986521;28;20093;-64
2023/07/20 12:33:10;;;;;;;1.85;0.57;;;19.60;1.00;;;;;;4970722;28;20049;-64
2023/07/20 12:35:36;;;;;;;2.00;0.45;;;19.60;1.00;;;;;;4965925;28;20054;-64
2023/07/20 12:38:02;;;;;;;0.80;0.32;;;19.60;1.00;;;;;;4969558;28;20469;-64
2023/07/20 12:40:28;;;;;;;0.82;0.50;;;19.80;1.00;;;;;;4989967;28;20042;-64
2023/07/20 12:42:55;;;;;;;1.33;0.60;;;19.90;1.00;;;;;;4982144;28;20134;-64
2023/07/20 12:45:22;;;;;;;2.47;0.77;;;19.90;1.00;;;;;;4971889;28;20050;-63
2023/07/20 12:47:47;;;;;;;1.40;0.50;;;20.00;1.00;;;;;;4988751;28;20046;-64
2023/07/20 12:50:13;;;;;;;3.05;0.65;;;20.00;1.00;;;;;;4970382;28;20754;-64